Guadalajara, México

8:34 PM CDT en Agosto 22, 2014 (GMT -0500)
Arcos Vallarta | Change Station
CLOSE
Current Station
Estación meteorológica personal
Location: Guadalajara, Jalisco
Altura: 5225 ft
Estaciones meteorológicas cercanas

Alt 5225 ft 20.68 °N, 103.38 °W | Updated 45 seconds ago

Mostly Cloudy
Muy nublado
73.2 ° F
Sensación térmica 76 ° F
N
2.0
Viento Variable Viento desde Norte
Gusts 8.0 mph

Hoy
Alta -- | Baja -- ° F
--% Posibilidad de precipitaciones
Ayer
Alta -- | Baja -- ° F
Precip. -- pul
7:34 AM 8:17 PM
Creciente menguante, 6% visible
Presión 30.11 pul
Visibilidad 10.0 Millas
Nubes Baja 2500 ft
Muy nublado 30000 ft
Índice de calor 76 ° F
Punto de rocío 62 ° F
Humedad 68%
Precipitaciones -999.00 pul
Espesor de la nieve No disponible.
UV 0 de una escala de 12
Polen No disponible.
Calidad del aire No disponible.
Flu Activity No disponible.
METAR MMGL 230046Z 17006KT 10SM FEW025CB BKN300 25/13 A3011 RMK 8/303 AC

More Conditions Fewer Conditions

Presión 30.11 pul
Visibilidad 10.0 Millas
Nubes Baja 2500 ft
Muy nublado 30000 ft
Índice de calor 76 ° F
Punto de rocío 62 ° F
Humedad 68%
Precipitaciones -999.00 pul
Espesor de la nieve No disponible.
UV 0 de una escala de 12
Polen No disponible.
Calidad del aire No disponible.
Flu Activity No disponible.
METAR MMGL 230046Z 17006KT 10SM FEW025CB BKN300 25/13 A3011 RMK 8/303 AC

More Conditions Fewer Conditions

10-Day Weather Forecast

Almanac

Astronomía

Aug. 22, 2014 Salida Puesta
Hora real 7:34 AM CDT 8:17 PM CDT
Crepúsculo civil 7:12 AM CDT 8:40 PM CDT
Crepúsculo náutico 6:45 AM CDT 9:06 PM CDT
Crepúsculo astronómico 6:18 AM CDT 9:34 PM CDT
Luna 5:08 AM CDT (8/22) 6:20 PM CDT (8/22)
Horas de luz 13h 28m
Horas de luz
12h 42m
Tomorrow will be 1m 5s shorter.
Creciente menguante, 6% of the Moon is Illuminated
Hoy
Creciente menguante
Ago 25
Nueva
Sep 2
Cuarto creciente
Sep 8
Luna llena
Sep 15
Cuarto menguante

Extremos de hoy

Máximos del país Bajas del país

Community

WunderPhotos

Upload Photos

1,746,337 ¡fotos cargadas!

WunderBlogs® & News

Nearby

Calidad del aire

Not available.

Grosos de nieve

Not available.

Actividad de terremotos

Ciudad Distance Mag. Tiempo y dato
No hay informes recientes de la actividad sísmica.
Magnitud mínima muestra es 2,5.

Temperaturas de aguas costeras

Lugar Temperatura
Sin partes meteorológicos de las estaciones

Estaciones meteorológicas cercanas